Time;durP1;ratioP1;P1;durP2;ratioP2;P2;SDS_P1;SDS_P2;PMS_P1;PMS_P2;Temp;Humidity;BMP_temperature;BMP_pressure;BME280_temperature;BME280_humidity;BME280_pressure;Samples;Min_cycle;Max_cycle;Signal;HPM_P1;HPM_P2
2022/06/12 00:01:11;;;;;;;;;2.00;2.00;;;;;18.64;59.24;101934.19;5079043;28;45357;-79
2022/06/12 00:03:38;;;;;;;;;3.00;3.00;;;;;18.57;59.74;101931.47;5079187;28;45253;-78
2022/06/12 00:06:04;;;;;;;;;4.00;3.00;;;;;18.53;59.52;101936.41;5083603;27;47111;-77
2022/06/12 00:08:32;;;;;;;;;2.67;2.33;;;;;18.43;59.90;101927.84;5074584;28;45532;-77
2022/06/12 00:11:00;;;;;;;;;3.00;3.00;;;;;18.33;59.80;101930.06;5096968;27;45374;-78
2022/06/12 00:13:34;;;;;;;;;3.00;2.67;;;;;18.34;59.97;101945.19;5097975;27;45365;-77
2022/06/12 00:16:00;;;;;;;;;1.00;1.00;;;;;18.19;59.57;101927.28;5082254;27;45698;-77
2022/06/12 00:18:26;;;;;;;;;2.00;2.00;;;;;18.19;60.36;101932.69;5081789;27;45717;-77
2022/06/12 00:21:10;;;;;;;;;3.00;2.00;;;;;18.11;60.23;101922.88;5081973;27;45203;-77
2022/06/12 00:23:56;;;;;;;;;2.00;2.00;;;;;18.11;59.88;101939.03;5082053;27;45336;-77
2022/06/12 00:26:29;;;;;;;;;2.00;1.67;;;;;18.05;60.56;101937.13;5081666;27;45932;-78
2022/06/12 00:29:06;;;;;;;;;2.00;2.00;;;;;17.98;60.68;101936.22;5081676;27;46393;-77
2022/06/12 00:31:35;;;;;;;;;2.33;2.00;;;;;17.92;60.58;101930.59;5082028;27;45194;-77
2022/06/12 00:34:01;;;;;;;;;5.00;2.67;;;;;17.84;61.02;101925.34;5080493;28;45311;-77
2022/06/12 00:36:27;;;;;;;;;3.00;2.67;;;;;17.81;61.06;101925.75;5081571;28;45440;-77
2022/06/12 00:38:52;;;;;;;;;2.00;2.00;;;;;17.70;60.96;101923.56;5081913;27;45864;-77
2022/06/12 00:41:18;;;;;;;;;3.00;3.00;;;;;17.71;61.21;101936.81;5081587;27;45274;-77
2022/06/12 00:43:43;;;;;;;;;2.33;2.33;;;;;17.67;61.62;101938.25;5082026;27;45339;-77
2022/06/12 00:46:35;;;;;;;;;3.00;3.00;;;;;17.61;61.71;101936.31;5081473;27;45520;-77
2022/06/12 00:49:06;;;;;;;;;3.00;3.00;;;;;17.56;61.67;101933.34;5081313;27;46599;-77
2022/06/12 00:51:32;;;;;;;;;2.33;2.33;;;;;17.45;62.43;101940.09;5080206;28;45940;-77
2022/06/12 00:53:59;;;;;;;;;5.00;4.33;;;;;17.46;62.41;101944.44;5097290;27;45436;-78
2022/06/12 00:56:29;;;;;;;;;1.67;1.67;;;;;17.40;62.56;101937.97;5081158;27;45312;-77
2022/06/12 00:59:01;;;;;;;;;3.33;3.00;;;;;17.29;62.29;101929.41;5081677;27;45389;-77
2022/06/12 01:01:34;;;;;;;;;7.00;5.00;;;;;17.26;62.67;101929.78;5097031;27;45782;-77
2022/06/12 01:06:50;;;;;;;;;5.00;3.00;;;;;17.20;62.81;101922.47;5085630;27;45217;-77
2022/06/12 01:09:28;;;;;;;;;3.67;3.00;;;;;17.18;62.90;101931.75;5080417;27;45359;-77
2022/06/12 01:11:55;;;;;;;;;5.00;5.00;;;;;17.19;63.05;101930.72;5097540;27;45272;-78
2022/06/12 01:14:25;;;;;;;;;1.00;1.00;;;;;17.15;63.28;101930.28;5097584;27;45598;-77
2022/06/12 01:16:53;;;;;;;;;6.00;5.33;;;;;17.09;62.64;101925.66;5082229;28;45524;-77
2022/06/12 01:19:29;;;;;;;;;5.00;4.67;;;;;17.13;62.80;101937.69;5081590;27;45282;-77
2022/06/12 01:22:28;;;;;;;;;5.00;5.00;;;;;17.09;62.68;101939.91;5081415;28;45265;-77
2022/06/12 01:25:10;;;;;;;;;6.33;6.33;;;;;17.01;62.41;101932.78;5080520;28;45319;-77
2022/06/12 01:28:00;;;;;;;;;8.00;6.00;;;;;16.99;62.66;101942.88;5069024;27;45458;-78
2022/06/12 01:30:44;;;;;;;;;5.00;5.00;;;;;16.88;62.65;101940.66;5064289;28;46368;-78
2022/06/12 01:33:19;;;;;;;;;6.00;6.00;;;;;16.88;62.69;101946.03;5079465;28;45410;-78
2022/06/12 01:36:07;;;;;;;;;3.00;3.00;;;;;16.84;62.84;101944.72;5081162;27;45475;-78
2022/06/12 01:38:52;;;;;;;;;7.67;5.00;;;;;16.81;62.26;101940.56;5080857;27;45330;-77
2022/06/12 01:41:44;;;;;;;;;9.33;7.67;;;;;16.73;62.43;101935.31;5080909;27;46296;-77
2022/06/12 01:44:18;;;;;;;;;5.00;5.00;;;;;16.65;62.09;101934.38;5080884;27;45661;-77
2022/06/12 01:47:08;;;;;;;;;6.00;5.33;;;;;16.61;62.50;101925.03;5080907;27;45251;-77
2022/06/12 01:49:41;;;;;;;;;5.67;3.33;;;;;16.73;62.72;101956.78;5081020;27;45728;-77
2022/06/12 01:52:39;;;;;;;;;5.00;5.00;;;;;16.67;62.19;101947.59;5080408;27;47059;-77
2022/06/12 01:55:31;;;;;;;;;5.00;5.00;;;;;16.68;62.56;101943.09;5077299;27;45539;-77
2022/06/12 01:57:59;;;;;;;;;8.00;6.67;;;;;16.72;61.67;101955.94;5081611;28;45315;-77
2022/06/12 02:00:26;;;;;;;;;6.00;6.00;;;;;16.74;61.95;101955.75;5081229;27;45297;-76
2022/06/12 02:02:59;;;;;;;;;7.00;6.00;;;;;16.74;61.24;101950.41;5081446;27;45353;-77
2022/06/12 02:05:39;;;;;;;;;7.67;7.33;;;;;16.76;61.49;101945.69;5094199;27;45291;-77
2022/06/12 02:08:20;;;;;;;;;5.33;5.00;;;;;16.77;61.78;101953.53;5082896;27;45350;-77
2022/06/12 02:14:01;;;;;;;;;8.67;8.67;;;;;16.72;61.07;101937.16;5080930;28;45489;-77
2022/06/12 02:16:33;;;;;;;;;5.67;5.33;;;;;16.77;61.23;101950.03;5081781;27;45469;-77
2022/06/12 02:19:04;;;;;;;;;9.00;7.00;;;;;16.77;61.63;101955.38;5080490;27;45346;-76
2022/06/12 02:21:41;;;;;;;;;8.33;8.33;;;;;16.69;61.33;101936.69;5096682;27;45729;-77
2022/06/12 02:24:09;;;;;;;;;3.67;3.67;;;;;16.79;61.39;101956.88;5080451;27;46181;-78
2022/06/12 02:26:40;;;;;;;;;7.00;7.00;;;;;16.72;61.66;101949.72;5075551;28;45285;-77
2022/06/12 02:29:13;;;;;;;;;7.00;6.00;;;;;16.77;61.97;101955.38;5072283;28;45391;-78
2022/06/12 02:31:43;;;;;;;;;9.67;7.33;;;;;16.74;62.99;101956.59;5079742;28;45343;-76
2022/06/12 02:34:17;;;;;;;;;6.00;6.00;;;;;16.69;62.49;101953.63;5080339;27;45279;-76
2022/06/12 02:36:48;;;;;;;;;10.00;6.00;;;;;16.62;62.76;101952.72;5078704;28;46257;-77
2022/06/12 02:39:19;;;;;;;;;10.00;7.00;;;;;16.62;62.57;101958.06;5078994;28;45497;-77
2022/06/12 02:41:53;;;;;;;;;9.33;7.33;;;;;16.56;63.25;101956.13;5079784;27;45385;-76
2022/06/12 02:44:36;;;;;;;;;5.00;5.00;;;;;16.47;63.49;101950.88;5095632;27;47667;-77
2022/06/12 02:47:08;;;;;;;;;5.00;4.33;;;;;16.43;63.42;101967.50;5080027;28;45284;-77
2022/06/12 02:49:37;;;;;;;;;5.67;5.67;;;;;16.31;63.62;101956.41;5080275;28;45457;-77
2022/06/12 02:52:11;;;;;;;;;6.67;6.67;;;;;16.33;63.73;101973.97;5095827;27;47104;-78
2022/06/12 02:55:00;;;;;;;;;4.00;4.00;;;;;16.22;63.43;101953.78;5079941;27;45279;-78
2022/06/12 02:57:45;;;;;;;;;5.33;5.00;;;;;16.23;63.84;101970.72;5080079;27;45344;-77
2022/06/12 03:00:18;;;;;;;;;8.33;6.00;;;;;16.18;63.94;101965.91;5079853;27;45521;-76
2022/06/12 03:02:55;;;;;;;;;7.67;5.67;;;;;16.12;63.96;101963.94;5079732;27;45556;-77
2022/06/12 03:05:30;;;;;;;;;7.33;5.33;;;;;16.09;63.62;101958.94;5089933;27;45733;-76
2022/06/12 03:08:01;;;;;;;;;8.00;6.00;;;;;16.07;64.15;101961.78;5079639;28;45307;-76
2022/06/12 03:10:32;;;;;;;;;5.33;5.33;;;;;16.01;64.51;101963.34;5079648;27;45464;-77
2022/06/12 03:12:58;;;;;;;;;6.00;5.33;;;;;15.95;64.67;101968.59;5079505;28;45339;-77
2022/06/12 03:15:38;;;;;;;;;5.67;5.00;;;;;15.92;64.82;101969.75;5095453;27;46871;-77
2022/06/12 03:18:07;;;;;;;;;4.00;4.00;;;;;15.74;65.37;101945.94;5079323;28;45254;-77
2022/06/12 03:21:02;;;;;;;;;6.33;6.33;;;;;15.84;65.36;101969.84;5095494;27;45361;-77
2022/06/12 03:23:43;;;;;;;;;6.67;4.00;;;;;15.72;65.51;101959.56;5095260;27;45752;-77
2022/06/12 03:26:30;;;;;;;;;5.67;5.67;;;;;15.70;65.43;101963.41;5079295;27;46842;-77
2022/06/12 03:29:16;;;;;;;;;4.33;3.33;;;;;15.67;66.11;101961.91;5075547;28;45793;-77
2022/06/12 03:31:55;;;;;;;;;4.33;4.00;;;;;15.56;66.30;101960.47;5095495;27;45640;-77
2022/06/12 03:34:46;;;;;;;;;5.67;5.00;;;;;15.60;66.51;101966.31;5079276;28;45399;-76
2022/06/12 03:37:18;;;;;;;;;3.67;3.67;;;;;15.50;66.79;101961.19;5067585;28;47080;-77
2022/06/12 03:39:57;;;;;;;;;5.00;5.00;;;;;15.52;67.41;101973.41;5079302;27;45294;-77
2022/06/12 03:42:38;;;;;;;;;3.33;2.33;;;;;15.44;67.17;101956.56;5079085;27;45437;-77
2022/06/12 03:45:12;;;;;;;;;5.00;5.00;;;;;15.43;67.27;101961.06;5081951;27;45639;-77
2022/06/12 03:47:52;;;;;;;;;4.00;4.00;;;;;15.43;67.77;101955.72;5082763;27;46181;-77
2022/06/12 03:50:33;;;;;;;;;6.00;4.00;;;;;15.41;67.50;101949.69;5082628;27;45382;-77
2022/06/12 03:53:04;;;;;;;;;4.33;4.33;;;;;15.45;67.27;101964.41;5083190;27;45247;-77
2022/06/12 03:58:27;;;;;;;;;5.00;5.00;;;;;15.36;66.86;101960.09;5082557;28;45264;-77
2022/06/12 04:00:54;;;;;;;;;4.67;4.00;;;;;15.39;67.47;101970.47;5098284;27;45243;-76
2022/06/12 04:03:25;;;;;;;;;4.67;4.67;;;;;15.38;67.96;101963.44;5082635;27;45318;-77
2022/06/12 04:05:56;;;;;;;;;4.00;4.00;;;;;15.38;67.88;101971.47;5092878;27;45429;-76
2022/06/12 04:08:27;;;;;;;;;4.00;3.33;;;;;15.37;68.04;101962.63;5098101;27;48202;-77
2022/06/12 04:10:55;;;;;;;;;4.00;4.00;;;;;15.31;67.89;101957.13;5082193;27;45242;-76
2022/06/12 04:13:22;;;;;;;;;6.00;5.00;;;;;15.29;67.99;101951.94;5082595;27;45264;-77
2022/06/12 04:15:54;;;;;;;;;4.00;4.00;;;;;15.31;67.81;101951.75;5097768;27;46042;-77
2022/06/12 04:18:20;;;;;;;;;8.00;5.00;;;;;15.30;67.77;101956.31;5082226;27;46095;-76
2022/06/12 04:20:49;;;;;;;;;8.00;4.00;;;;;15.33;67.85;101947.91;5081953;28;45247;-76
2022/06/12 04:23:22;;;;;;;;;6.00;4.00;;;;;15.35;68.40;101961.09;5082980;28;45315;-76
2022/06/12 04:25:53;;;;;;;;;4.00;4.00;;;;;15.29;68.56;101951.13;5082009;27;45568;-76
2022/06/12 04:28:36;;;;;;;;;4.33;3.00;;;;;15.26;68.84;101950.44;5082378;28;45520;-77
2022/06/12 04:31:05;;;;;;;;;4.67;4.67;;;;;15.35;68.59;101956.59;5082112;27;45453;-77
2022/06/12 04:33:56;;;;;;;;;3.00;3.00;;;;;15.27;68.30;101949.44;5082175;27;45307;-76
2022/06/12 04:36:23;;;;;;;;;5.33;4.33;;;;;15.37;68.78;101967.13;5081870;27;45358;-77
2022/06/12 04:38:48;;;;;;;;;7.33;4.00;;;;;15.38;69.11;101969.63;5080941;28;46550;-76
2022/06/12 04:41:22;;;;;;;;;4.00;4.00;;;;;15.38;69.42;101961.59;5080382;27;45248;-77
2022/06/12 04:43:48;;;;;;;;;3.33;3.33;;;;;15.42;69.65;101966.59;5081967;28;45217;-76
2022/06/12 04:46:13;;;;;;;;;6.33;4.67;;;;;15.34;69.81;101957.59;5081884;27;45273;-77
2022/06/12 04:48:42;;;;;;;;;4.67;4.67;;;;;15.42;69.77;101969.28;5082358;27;45807;-76
2022/06/12 04:51:10;;;;;;;;;6.00;5.33;;;;;15.43;69.86;101963.75;5080504;28;45639;-76
2022/06/12 04:53:36;;;;;;;;;3.00;3.00;;;;;15.48;69.47;101966.72;5083185;27;45391;-77
2022/06/12 04:56:03;;;;;;;;;4.33;3.67;;;;;15.52;68.81;101960.00;5079905;28;45999;-76
2022/06/12 04:58:28;;;;;;;;;3.00;2.33;;;;;15.54;68.31;101951.78;5081731;28;46208;-77
2022/06/12 05:00:54;;;;;;;;;6.00;4.00;;;;;15.60;68.25;101956.44;5097804;27;45239;-77
2022/06/12 05:03:19;;;;;;;;;4.33;4.33;;;;;15.69;67.78;101951.88;5082777;28;45288;-77
2022/06/12 05:05:45;;;;;;;;;3.67;3.00;;;;;15.68;67.42;101952.84;5092879;27;45470;-76
2022/06/12 05:08:11;;;;;;;;;4.00;3.00;;;;;15.73;67.44;101960.34;5098685;27;47394;-78
2022/06/12 05:10:37;;;;;;;;;4.33;4.00;;;;;15.78;67.21;101968.72;5081987;27;45835;-77
2022/06/12 05:13:03;;;;;;;;;3.67;3.33;;;;;15.74;67.00;101948.63;5081734;27;45363;-77
2022/06/12 05:15:29;;;;;;;;;3.67;3.00;;;;;15.83;66.49;101954.78;5080356;28;46283;-77
2022/06/12 05:17:54;;;;;;;;;4.00;4.00;;;;;15.76;67.10;101949.28;5082799;27;46290;-77
2022/06/12 05:20:24;;;;;;;;;8.67;5.33;;;;;15.92;67.45;101966.25;5081695;27;45330;-77
2022/06/12 05:22:50;;;;;;;;;3.33;2.67;;;;;15.95;67.01;101963.22;5082491;27;45318;-77
2022/06/12 05:25:17;;;;;;;;;7.33;7.33;;;;;15.89;66.79;101943.31;5081930;27;45260;-77
2022/06/12 05:27:44;;;;;;;;;5.67;5.67;;;;;15.92;66.60;101945.63;5087334;27;46292;-78
2022/06/12 05:30:14;;;;;;;;;6.00;6.00;;;;;15.96;66.73;101947.00;5090039;28;45383;-79
2022/06/12 05:32:40;;;;;;;;;3.00;3.00;;;;;15.95;66.81;101950.63;5081791;28;45316;-78
2022/06/12 05:35:07;;;;;;;;;5.67;4.67;;;;;15.96;66.82;101951.47;5082235;27;45282;-78
2022/06/12 05:37:32;;;;;;;;;7.33;6.33;;;;;16.02;67.11;101954.28;5082003;27;45927;-78
2022/06/12 05:39:58;;;;;;;;;6.67;6.67;;;;;15.98;67.15;101939.59;5085931;28;45377;-79
2022/06/12 05:42:23;;;;;;;;;7.00;5.00;;;;;16.05;66.94;101949.59;5083091;27;45352;-78
2022/06/12 05:44:48;;;;;;;;;3.00;3.00;;;;;16.06;66.62;101940.53;5082020;27;45318;-77
2022/06/12 05:47:14;;;;;;;;;9.00;5.67;;;;;16.15;67.36;101950.16;5082418;27;46121;-78
2022/06/12 05:49:39;;;;;;;;;6.00;4.67;;;;;16.10;67.21;101937.28;5078781;28;45322;-78
2022/06/12 05:52:05;;;;;;;;;6.33;6.00;;;;;16.19;67.94;101946.09;5082959;28;45556;-78
2022/06/12 05:54:30;;;;;;;;;7.67;7.00;;;;;16.30;67.47;101954.72;5081602;27;45407;-78
2022/06/12 05:56:56;;;;;;;;;4.33;2.00;;;;;16.27;67.95;101946.03;5082971;27;45393;-78
2022/06/12 05:59:22;;;;;;;;;9.00;4.00;;;;;16.38;67.57;101949.28;5084569;27;45386;-78
2022/06/12 06:01:47;;;;;;;;;5.33;4.00;;;;;16.43;67.29;101957.59;5081633;28;45466;-78
2022/06/12 06:04:13;;;;;;;;;4.67;4.67;;;;;16.52;67.32;101961.03;5084427;27;46206;-78
2022/06/12 06:06:45;;;;;;;;;5.00;5.00;;;;;16.61;67.27;101961.78;5087856;27;45396;-78
2022/06/12 06:09:11;;;;;;;;;7.00;5.67;;;;;16.68;67.07;101968.06;5080104;28;45417;-77
2022/06/12 06:11:37;;;;;;;;;4.67;4.67;;;;;16.72;67.36;101961.31;5079921;27;45342;-78
2022/06/12 06:14:02;;;;;;;;;6.00;4.33;;;;;16.82;66.54;101965.56;5080231;28;45337;-77
2022/06/12 06:16:28;;;;;;;;;6.00;4.00;;;;;16.87;66.25;101965.84;5080148;27;45450;-76
2022/06/12 06:18:54;;;;;;;;;7.33;4.67;;;;;16.96;66.03;101977.31;5080207;27;45317;-78
2022/06/12 06:21:19;;;;;;;;;5.00;5.00;;;;;17.01;66.35;101978.44;5080266;28;45353;-79
2022/06/12 06:23:45;;;;;;;;;3.00;3.00;;;;;17.10;66.08;101973.81;5080267;27;45516;-78
2022/06/12 06:26:10;;;;;;;;;7.00;5.67;;;;;17.18;65.29;101972.03;5078658;27;45260;-78
2022/06/12 06:28:37;;;;;;;;;5.00;4.67;;;;;17.22;65.03;101971.47;5078344;27;45283;-77
2022/06/12 06:31:03;;;;;;;;;3.00;2.00;;;;;17.24;65.47;101966.72;5078498;28;45504;-78
2022/06/12 06:33:29;;;;;;;;;5.33;3.33;;;;;17.19;65.02;101973.69;5077757;27;45327;-77
2022/06/12 06:35:54;;;;;;;;;4.67;3.00;;;;;17.19;65.18;101963.78;5078158;27;45667;-78
2022/06/12 06:38:20;;;;;;;;;6.67;3.67;;;;;17.33;65.48;101980.06;5078028;27;45485;-78
2022/06/12 06:40:46;;;;;;;;;3.00;3.00;;;;;17.44;65.11;101984.09;5079223;27;45347;-78
2022/06/12 06:43:11;;;;;;;;;4.33;3.33;;;;;17.47;64.33;101981.88;5079648;28;45515;-78
2022/06/12 06:48:24;;;;;;;;;3.00;2.33;;;;;17.52;64.38;101963.34;5079683;28;45292;-78
2022/06/12 06:50:50;;;;;;;;;4.67;4.00;;;;;17.63;63.91;101985.34;5079864;27;45341;-78
2022/06/12 06:53:15;;;;;;;;;3.67;2.33;;;;;17.64;63.77;101977.09;5079709;27;45301;-78
2022/06/12 06:55:42;;;;;;;;;2.67;2.00;;;;;17.72;63.91;101986.88;5079565;28;45350;-78
2022/06/12 06:58:14;;;;;;;;;5.00;3.00;;;;;17.79;63.35;101981.56;5079783;28;45294;-78
2022/06/12 07:00:42;;;;;;;;;3.00;3.00;;;;;17.86;63.00;101989.69;5079832;27;45401;-78
2022/06/12 07:03:08;;;;;;;;;2.00;2.00;;;;;17.83;62.76;101979.31;5079334;27;45304;-78
2022/06/12 07:05:34;;;;;;;;;4.00;3.67;;;;;17.96;62.83;102000.94;5089720;27;45344;-78
2022/06/12 07:08:02;;;;;;;;;3.00;3.00;;;;;18.01;62.47;101995.00;5079376;27;45322;-77
2022/06/12 07:10:31;;;;;;;;;3.33;3.33;;;;;18.07;62.09;101996.09;5078093;28;45357;-78
2022/06/12 07:12:56;;;;;;;;;2.00;2.00;;;;;18.08;62.15;101995.88;5079557;27;45326;-78
2022/06/12 07:15:24;;;;;;;;;2.00;2.00;;;;;18.14;61.74;101986.25;5079172;27;46712;-78
2022/06/12 07:17:50;;;;;;;;;5.67;4.00;;;;;18.23;60.21;101995.81;5095319;27;45353;-78
2022/06/12 07:20:19;;;;;;;;;3.00;3.00;;;;;18.25;60.57;101988.41;5086000;28;45312;-78
2022/06/12 07:22:45;;;;;;;;;6.67;3.67;;;;;18.32;60.80;101976.84;5086279;27;45412;-78
2022/06/12 07:25:12;;;;;;;;;4.00;2.67;;;;;18.40;60.02;101984.75;5085881;28;45409;-78
2022/06/12 07:27:38;;;;;;;;;2.33;2.33;;;;;18.45;60.18;101987.72;5085904;27;45404;-78
2022/06/12 07:30:06;;;;;;;;;5.67;5.67;;;;;18.47;59.63;101982.94;5086139;27;45301;-78
2022/06/12 07:32:32;;;;;;;;;4.00;4.00;;;;;18.50;59.56;101982.56;5086661;28;45180;-78
2022/06/12 07:34:57;;;;;;;;;3.00;3.00;;;;;18.49;59.24;101977.38;5085518;27;45801;-78
2022/06/12 07:37:23;;;;;;;;;7.00;4.00;;;;;18.62;59.23;101990.09;5084977;28;45341;-77
2022/06/12 07:39:48;;;;;;;;;5.33;4.00;;;;;18.65;59.60;101987.00;5088720;27;45161;-77
2022/06/12 07:42:13;;;;;;;;;3.67;3.67;;;;;18.71;59.46;101986.22;5089061;27;45682;-81
2022/06/12 07:44:39;;;;;;;;;3.67;3.67;;;;;18.72;59.10;101977.09;5090025;27;46103;-79
2022/06/12 07:47:05;;;;;;;;;5.67;4.33;;;;;18.85;58.90;101989.00;5090854;28;46075;-81
2022/06/12 07:49:32;;;;;;;;;5.67;5.67;;;;;18.91;58.06;101983.63;5082176;27;45200;-79
2022/06/12 07:51:59;;;;;;;;;3.00;1.67;;;;;18.98;58.06;101991.75;5097316;27;45995;-78
2022/06/12 07:54:25;;;;;;;;;4.00;2.00;;;;;19.04;57.56;101993.59;5084022;27;48376;-79
2022/06/12 07:56:51;;;;;;;;;2.00;2.00;;;;;19.15;57.00;101991.41;5094034;27;45358;-78
2022/06/12 07:59:17;;;;;;;;;1.67;1.33;;;;;19.19;57.29;101984.59;5092011;27;45144;-78
2022/06/12 08:01:43;;;;;;;;;1.00;1.00;;;;;19.33;56.48;101990.84;5095935;28;46319;-78
2022/06/12 08:04:10;;;;;;;;;1.33;1.33;;;;;19.37;55.64;101981.34;5087717;27;47350;-79
2022/06/12 08:06:36;;;;;;;;;3.67;1.67;;;;;19.51;55.74;101986.75;5085046;27;45452;-79
2022/06/12 08:09:05;;;;;;;;;1.33;1.33;;;;;19.50;55.37;101975.16;5098974;27;45378;-80
2022/06/12 08:11:31;;;;;;;;;2.00;2.00;;;;;19.65;54.94;101984.91;5084976;27;45478;-79
2022/06/12 08:13:57;;;;;;;;;0.00;0.00;;;;;19.67;55.16;101980.16;5082358;27;47616;-78
2022/06/12 08:16:22;;;;;;;;;1.67;1.67;;;;;19.75;54.71;101965.66;5084093;28;45278;-78
2022/06/12 08:18:47;;;;;;;;;1.67;1.00;;;;;19.86;55.01;101973.09;5086187;28;45318;-79
2022/06/12 08:21:15;;;;;;;;;2.67;2.67;;;;;19.94;54.98;101986.38;5101228;27;46074;-79
2022/06/12 08:23:48;;;;;;;;;3.00;2.33;;;;;19.98;54.31;101975.19;5085962;27;46106;-79
2022/06/12 08:26:30;;;;;;;;;2.67;2.67;;;;;19.97;54.59;101968.13;5083736;28;45243;-79
2022/06/12 08:29:00;;;;;;;;;2.00;2.00;;;;;20.10;54.17;101976.25;5101472;27;45484;-79
2022/06/12 08:31:44;;;;;;;;;1.33;1.33;;;;;20.20;53.29;101978.53;5081390;27;45461;-78
2022/06/12 08:34:31;;;;;;;;;1.00;1.00;;;;;20.25;53.53;101978.72;5068173;28;45286;-79
2022/06/12 08:37:01;;;;;;;;;1.00;1.00;;;;;20.23;53.31;101967.31;5071201;28;45497;-78
2022/06/12 08:39:27;;;;;;;;;2.00;2.00;;;;;20.29;53.21;101966.47;5081469;27;45385;-79
2022/06/12 08:42:07;;;;;;;;;2.33;2.33;;;;;20.40;53.97;101964.16;5081208;27;45471;-79
2022/06/12 08:45:15;;;;;;;;;1.67;1.00;;;;;20.52;53.05;101961.66;5081487;27;45506;-79
2022/06/12 08:48:07;;;;;;;;;2.00;2.00;;;;;20.66;52.59;101968.69;5081204;28;45344;-79
2022/06/12 08:50:44;;;;;;;;;2.00;1.00;;;;;20.72;52.07;101956.22;5083882;27;45447;-78
2022/06/12 08:53:35;;;;;;;;;3.00;0.67;;;;;20.86;52.06;101959.66;5084688;28;45500;-80
2022/06/12 08:56:06;;;;;;;;;2.33;1.67;;;;;20.91;52.24;101953.66;5081445;27;45245;-78
2022/06/12 08:58:44;;;;;;;;;1.33;1.00;;;;;20.99;52.69;101953.44;5078330;28;45296;-79
2022/06/12 09:01:11;;;;;;;;;1.00;1.00;;;;;21.08;51.83;101958.56;5077816;28;45237;-79
2022/06/12 09:03:41;;;;;;;;;2.33;2.00;;;;;21.13;52.02;101956.88;5079974;28;46135;-79
2022/06/12 09:06:17;;;;;;;;;1.33;1.00;;;;;21.21;50.17;101954.97;5101937;27;47374;-79
2022/06/12 09:08:49;;;;;;;;;1.67;1.67;;;;;21.23;50.25;101940.22;5081185;28;45367;-79
2022/06/12 09:11:18;;;;;;;;;2.00;2.00;;;;;21.24;49.73;101944.56;5080773;27;45545;-79
2022/06/12 09:14:01;;;;;;;;;3.00;2.00;;;;;21.34;49.58;101940.56;5083194;27;45505;-78
2022/06/12 09:16:45;;;;;;;;;2.00;2.00;;;;;21.37;48.83;101946.34;5079925;28;47395;-78
2022/06/12 09:19:41;;;;;;;;;0.67;0.67;;;;;21.42;49.06;101941.13;5080800;27;45571;-79
2022/06/12 09:22:25;;;;;;;;;3.00;2.00;;;;;21.43;48.39;101939.25;5078936;28;45164;-79
2022/06/12 09:25:19;;;;;;;;;1.00;1.00;;;;;21.45;48.59;101937.13;5078497;28;47226;-80
2022/06/12 09:27:44;;;;;;;;;3.33;2.00;;;;;21.49;48.64;101932.94;5077418;28;46251;-79
2022/06/12 09:30:16;;;;;;;;;0.67;0.67;;;;;21.57;46.07;101950.78;5077207;28;45388;-78
2022/06/12 09:33:07;;;;;;;;;2.67;2.67;;;;;21.62;47.10;101931.19;5081021;27;45425;-79
2022/06/12 09:35:32;;;;;;;;;2.33;2.00;;;;;21.75;48.38;101939.25;5080555;27;45353;-78
2022/06/12 09:38:22;;;;;;;;;1.00;1.00;;;;;21.84;48.25;101928.97;5080581;28;45286;-79
2022/06/12 09:41:08;;;;;;;;;2.33;2.33;;;;;21.84;48.06;101912.72;5081055;27;45354;-79
2022/06/12 09:44:10;;;;;;;;;1.67;1.67;;;;;22.03;46.79;101939.84;5080615;27;45355;-79
2022/06/12 09:46:46;;;;;;;;;2.00;1.00;;;;;22.05;47.30;101935.88;5080670;28;45482;-78
2022/06/12 09:49:43;;;;;;;;;3.00;2.00;;;;;22.13;47.05;101942.03;5080775;27;45436;-79
2022/06/12 09:52:17;;;;;;;;;1.00;1.00;;;;;22.19;46.26;101944.69;5079024;27;45378;-80
2022/06/12 09:55:06;;;;;;;;;1.00;1.00;;;;;22.27;46.20;101942.75;5079055;28;45386;-78
2022/06/12 09:57:59;;;;;;;;;3.00;1.67;;;;;22.31;46.34;101947.50;5079103;28;46226;-79
2022/06/12 10:01:01;;;;;;;;;1.67;1.67;;;;;22.38;45.64;101943.84;5079038;28;48426;-79
2022/06/12 10:04:06;;;;;;;;;1.00;1.00;;;;;22.45;44.63;101941.94;5074473;28;45347;-81
2022/06/12 10:06:45;;;;;;;;;4.67;3.00;;;;;22.56;44.29;101943.88;5085542;28;45404;-79
2022/06/12 10:09:33;;;;;;;;;1.33;1.33;;;;;22.70;45.17;101950.00;5074455;28;45175;-79
2022/06/12 10:12:20;;;;;;;;;0.67;0.00;;;;;22.88;44.70;101936.63;5090451;28;46131;-78
2022/06/12 10:14:58;;;;;;;;;2.33;1.33;;;;;23.04;44.23;101927.88;5089104;27;45452;-80
2022/06/12 10:17:34;;;;;;;;;2.00;2.00;;;;;23.19;44.46;101932.88;5087945;27;45349;-80
2022/06/12 10:20:08;;;;;;;;;2.33;2.33;;;;;23.40;44.19;101941.56;5082548;27;45426;-81
2022/06/12 10:22:43;;;;;;;;;1.67;1.67;;;;;23.43;43.04;101940.28;5083930;28;46206;-82
2022/06/12 10:25:18;;;;;;;;;2.00;2.00;;;;;23.44;43.70;101934.63;5087451;27;45337;-81
2022/06/12 10:28:01;;;;;;;;;3.67;2.33;;;;;23.48;43.90;101924.16;5081888;28;45426;-79
2022/06/12 10:30:39;;;;;;;;;4.00;4.00;;;;;23.64;44.13;101925.34;5078518;27;45357;-79
2022/06/12 10:33:22;;;;;;;;;1.33;1.00;;;;;23.74;43.56;101913.09;5067149;28;46639;-79
2022/06/12 10:35:54;;;;;;;;;0.00;0.00;;;;;23.97;43.28;101925.81;5077750;28;45470;-79
2022/06/12 10:38:26;;;;;;;;;1.00;1.00;;;;;24.15;43.50;101921.38;5075677;28;45413;-81
2022/06/12 10:40:55;;;;;;;;;3.33;3.33;;;;;24.25;43.02;101910.75;5079788;27;45426;-79
2022/06/12 10:43:32;;;;;;;;;3.00;0.00;;;;;24.43;43.03;101907.06;5074069;28;45342;-80
2022/06/12 10:46:06;;;;;;;;;1.00;1.00;;;;;24.57;42.60;101907.59;5075403;28;45596;-83
2022/06/12 10:48:35;;;;;;;;;2.00;2.00;;;;;24.71;41.76;101907.31;5075522;28;45374;-79
2022/06/12 10:51:06;;;;;;;;;3.00;2.33;;;;;24.74;40.69;101892.41;5073271;28;45364;-78
2022/06/12 10:53:33;;;;;;;;;2.00;2.00;;;;;24.97;41.11;101905.13;5093884;27;47593;-78
2022/06/12 10:56:09;;;;;;;;;1.33;1.33;;;;;25.08;41.05;101906.94;5079352;27;45444;-78
2022/06/12 10:59:03;;;;;;;;;4.33;3.00;;;;;25.25;41.05;101906.13;5077433;28;45347;-79
2022/06/12 11:01:51;;;;;;;;;2.00;2.00;;;;;25.37;39.82;101891.63;5070798;28;45376;-76
2022/06/12 11:04:35;;;;;;;;;1.67;1.67;;;;;25.50;41.16;101899.47;5067642;27;45638;-78
2022/06/12 11:07:12;;;;;;;;;1.00;1.00;;;;;25.65;40.25;101895.38;5074451;28;45329;-78
2022/06/12 11:10:08;;;;;;;;;2.00;1.67;;;;;25.76;39.66;101894.44;5072487;28;45759;-79
2022/06/12 11:12:42;;;;;;;;;2.67;2.67;;;;;25.95;40.87;101886.81;5072566;28;45264;-78
2022/06/12 11:15:32;;;;;;;;;3.33;2.33;;;;;26.05;39.20;101868.97;5077280;28;48209;-78
2022/06/12 11:17:58;;;;;;;;;2.00;2.00;;;;;26.32;40.00;101881.88;5070670;28;45476;-79
2022/06/12 11:20:52;;;;;;;;;3.00;3.00;;;;;26.45;38.81;101873.31;5075638;28;45258;-78
2022/06/12 11:23:41;;;;;;;;;2.33;2.33;;;;;26.57;39.07;101869.63;5062639;27;46477;-77
2022/06/12 11:26:40;;;;;;;;;7.00;3.33;;;;;26.68;39.70;101860.47;5037658;28;45395;-78
2022/06/12 11:29:08;;;;;;;;;3.00;2.67;;;;;26.83;39.51;101867.16;5080062;28;45295;-78
2022/06/12 11:31:33;;;;;;;;;2.67;2.67;;;;;26.89;38.46;101860.69;5080256;28;45451;-79
2022/06/12 11:34:04;;;;;;;;;2.33;2.33;;;;;27.00;39.17;101853.47;5079898;28;45315;-81
2022/06/12 11:36:39;;;;;;;;;6.00;5.00;;;;;27.02;38.67;101848.53;5078006;28;48185;-79
2022/06/12 11:39:30;;;;;;;;;1.33;1.33;;;;;27.20;38.38;101851.97;5081255;27;45346;-82
2022/06/12 11:42:18;;;;;;;;;5.00;2.33;;;;;27.31;35.95;101856.44;5075803;27;45472;-79
2022/06/12 11:44:45;;;;;;;;;2.67;2.67;;;;;27.34;36.88;101857.81;5068206;28;45445;-79
2022/06/12 11:47:22;;;;;;;;;4.00;2.33;;;;;27.47;36.67;101848.34;5080200;27;46645;-82
2022/06/12 11:50:21;;;;;;;;;2.00;2.00;;;;;27.57;36.99;101844.88;5079560;27;45383;-79
2022/06/12 11:53:23;;;;;;;;;3.33;3.00;;;;;27.61;36.07;101837.78;5061998;28;45272;-80
2022/06/12 11:56:00;;;;;;;;;3.00;3.00;;;;;27.64;35.61;101836.44;5078927;28;45326;-79
2022/06/12 11:58:49;;;;;;;;;2.33;2.33;;;;;27.73;34.64;101830.25;5079883;28;46124;-78
2022/06/12 12:01:20;;;;;;;;;1.67;1.67;;;;;27.84;34.56;101828.38;5078952;27;45352;-80
2022/06/12 12:03:55;;;;;;;;;2.67;1.00;;;;;27.87;35.33;101829.78;5074929;27;45326;-79
2022/06/12 12:06:46;;;;;;;;;2.00;2.00;;;;;27.88;34.63;101815.03;5085011;27;45294;-79